Terminal Aerodrome Forecast
Issued by NWS North Platte, NE

Home | Current Version | Previous Version | Text Only | Print | Product List | Glossary On
Versions: 1 2 3 4 5 6 7 8 9 10 11 12 13 14 15 16 17 18 19 20
000
FTUS43 KLBF 291600 AAC
TAFVTN
TAF AMD
KVTN 291606Z 2916/3012 35015G22KT 6SM BR BKN003 BKN010
     FM292100 01013KT P6SM OVC025
     FM300000 01006KT P6SM OVC025=

USA.gov is the U.S. government's official web portal to all federal, state and local government web resources and services.